createdAt,value
2019-05-14T00:01:51.274Z,101860.84
2019-05-14T00:04:53.935Z,101857.32
2019-05-14T00:07:57.456Z,101857.72
2019-05-14T00:11:01.594Z,101853.84
2019-05-14T00:14:05.172Z,101852.51
2019-05-14T00:17:11.096Z,101849.86
2019-05-14T00:20:14.372Z,101849.92
2019-05-14T00:23:17.795Z,101845.95
2019-05-14T00:26:21.581Z,101844.69
2019-05-14T00:29:25.126Z,101838.45
2019-05-14T00:32:28.717Z,101841.48
2019-05-14T00:35:35.584Z,101839.39
2019-05-14T00:38:37.359Z,101845.08
2019-05-14T00:41:42.023Z,101843.81
2019-05-14T00:44:54.473Z,101844.30
2019-05-14T00:47:52.994Z,101853.14
2019-05-14T00:50:56.500Z,101853.14
2019-05-14T00:54:01.683Z,101846.13
2019-05-14T00:57:06.340Z,101847.00
2019-05-14T01:00:15.705Z,101845.25
2019-05-14T01:03:21.588Z,101852.24
2019-05-14T01:06:24.425Z,101848.33
2019-05-14T01:09:28.007Z,101847.97
2019-05-14T01:12:31.858Z,101848.39
2019-05-14T01:15:35.253Z,101841.77
2019-05-14T01:18:38.848Z,101842.16
2019-05-14T01:21:43.381Z,101836.47
2019-05-14T01:24:47.901Z,101843.55
2019-05-14T01:27:52.429Z,101842.67
2019-05-14T01:30:57.886Z,101850.62
2019-05-14T01:34:02.184Z,101852.94
2019-05-14T01:37:11.381Z,101847.06
2019-05-14T01:40:14.086Z,101845.32
2019-05-14T01:43:17.517Z,101843.60
2019-05-14T01:46:21.177Z,101844.54
2019-05-14T01:49:24.607Z,101843.60
2019-05-14T01:52:28.217Z,101836.98
2019-05-14T01:55:32.512Z,101838.43
2019-05-14T01:58:35.936Z,101838.81
2019-05-14T02:01:41.371Z,101839.24
2019-05-14T02:04:44.867Z,101842.95
2019-05-14T02:07:48.396Z,101844.27
2019-05-14T02:10:52.906Z,101849.41
2019-05-14T02:13:56.419Z,101845.98
2019-05-14T02:17:01.914Z,101838.55
2019-05-14T02:20:05.606Z,101839.42
2019-05-14T02:23:11.986Z,101840.81
2019-05-14T02:26:15.543Z,101837.70
2019-05-14T02:29:21.505Z,101840.00
2019-05-14T02:32:25.096Z,101838.61
2019-05-14T02:35:29.730Z,101840.30
2019-05-14T02:38:40.593Z,101839.48
2019-05-14T02:41:49.648Z,101842.52
2019-05-14T02:44:51.288Z,101835.52
2019-05-14T02:47:55.805Z,101834.25
2019-05-14T02:51:00.273Z,101834.19
2019-05-14T02:54:03.636Z,101830.73
2019-05-14T02:57:10.318Z,101824.92
2019-05-14T03:00:12.464Z,101836.84
2019-05-14T03:03:19.016Z,101830.61
2019-05-14T03:06:21.126Z,101834.70
2019-05-14T03:09:24.523Z,101833.25
2019-05-14T03:12:30.283Z,101834.70
2019-05-14T03:15:34.281Z,101831.60
2019-05-14T03:18:39.589Z,101833.37
2019-05-14T03:21:43.125Z,101829.02
2019-05-14T03:24:50.008Z,101830.73
2019-05-14T03:27:55.859Z,101829.40
2019-05-14T03:31:03.070Z,101830.34
2019-05-14T03:34:04.433Z,101827.30
2019-05-14T03:37:12.722Z,101829.02
2019-05-14T03:40:13.049Z,101826.81
2019-05-14T03:43:19.599Z,101828.14
2019-05-14T03:46:39.818Z,101825.16
2019-05-14T03:49:28.794Z,101825.58
2019-05-14T03:52:32.469Z,101828.23
2019-05-14T03:55:35.985Z,101826.48
2019-05-14T03:58:40.499Z,101821.19
2019-05-14T04:01:43.993Z,101823.84
2019-05-14T04:04:50.255Z,101827.81
2019-05-14T04:07:53.050Z,101821.73
2019-05-14T04:10:59.088Z,101821.73
2019-05-14T04:14:02.187Z,101821.19
2019-05-14T04:17:10.991Z,101820.80
2019-05-14T04:20:12.082Z,101814.56
2019-05-14T04:23:19.697Z,101818.54
2019-05-14T04:26:22.327Z,101823.84
2019-05-14T04:29:25.754Z,101823.90
2019-05-14T04:32:30.655Z,101826.09
2019-05-14T04:35:35.221Z,101831.13
2019-05-14T04:38:40.985Z,101827.94
2019-05-14T04:41:43.856Z,101835.48
2019-05-14T04:44:50.220Z,101834.98
2019-05-14T04:47:52.693Z,101827.55
2019-05-14T04:51:00.435Z,101827.21
2019-05-14T04:54:05.412Z,101826.77
2019-05-14T04:57:10.410Z,101832.96
2019-05-14T05:00:14.237Z,101827.72
2019-05-14T05:03:19.978Z,101820.66
2019-05-14T05:06:22.891Z,101824.17
2019-05-14T05:09:29.327Z,101821.97
2019-05-14T05:12:32.789Z,101821.97
2019-05-14T05:15:36.290Z,101819.78
2019-05-14T05:18:40.821Z,101822.79
2019-05-14T05:21:44.232Z,101823.23
2019-05-14T05:24:48.547Z,101824.11
2019-05-14T05:27:52.022Z,101821.05
2019-05-14T05:30:55.630Z,101825.44
2019-05-14T05:34:01.169Z,101814.03
2019-05-14T05:37:05.693Z,101812.70
2019-05-14T05:40:10.238Z,101802.50
2019-05-14T05:43:13.653Z,101808.28
2019-05-14T05:46:19.232Z,101813.52
2019-05-14T05:49:22.384Z,101799.47
2019-05-14T05:52:31.661Z,101811.33
2019-05-14T05:55:35.112Z,101809.67
2019-05-14T05:58:39.790Z,101810.00
2019-05-14T06:01:46.506Z,101797.75
2019-05-14T06:04:48.935Z,101813.09
2019-05-14T06:07:52.342Z,101810.88
2019-05-14T06:10:55.918Z,101810.06
2019-05-14T06:13:59.383Z,101803.05
2019-05-14T06:17:03.961Z,101810.06
2019-05-14T06:20:08.564Z,101809.19
2019-05-14T06:23:13.573Z,101797.27
2019-05-14T06:26:19.118Z,101793.66
2019-05-14T06:29:22.340Z,101790.59
2019-05-14T06:32:29.048Z,101793.17
2019-05-14T06:35:32.385Z,101791.52
2019-05-14T06:38:38.867Z,101788.88
2019-05-14T06:41:43.110Z,101792.72
2019-05-14T06:44:49.065Z,101788.75
2019-05-14T06:47:52.020Z,101784.78
2019-05-14T06:50:58.044Z,101783.45
2019-05-14T06:54:00.869Z,101775.90
2019-05-14T06:57:08.669Z,101777.22
2019-05-14T07:00:11.554Z,101783.45
2019-05-14T07:03:18.043Z,101788.75
2019-05-14T07:06:21.431Z,101783.45
2019-05-14T07:09:24.931Z,101786.10
2019-05-14T07:12:29.366Z,101785.71
2019-05-14T07:15:33.156Z,101785.05
2019-05-14T07:18:48.619Z,101779.63
2019-05-14T07:21:41.826Z,101775.11
2019-05-14T07:24:46.316Z,101778.56
2019-05-14T07:27:49.847Z,101780.28
2019-05-14T07:30:55.412Z,101774.98
2019-05-14T07:33:59.898Z,101772.27
2019-05-14T07:37:03.437Z,101764.25
2019-05-14T07:40:08.547Z,101769.88
2019-05-14T07:43:12.122Z,101768.62
2019-05-14T07:46:18.856Z,101767.66
2019-05-14T07:49:21.899Z,101760.48
2019-05-14T07:52:25.416Z,101760.42
2019-05-14T07:55:28.989Z,101765.72
2019-05-14T07:58:32.621Z,101757.38
2019-05-14T08:01:38.846Z,101753.41
2019-05-14T08:04:42.486Z,101752.02
2019-05-14T08:07:47.965Z,101755.93
2019-05-14T08:10:51.326Z,101758.97
2019-05-14T08:13:54.773Z,101750.62
2019-05-14T08:17:02.074Z,101749.69
2019-05-14T08:20:05.985Z,101754.87
2019-05-14T08:23:10.539Z,101748.63
2019-05-14T08:26:14.176Z,101740.68
2019-05-14T08:29:18.154Z,101742.45
2019-05-14T08:32:22.096Z,101742.36
2019-05-14T08:35:25.695Z,101742.78
2019-05-14T08:38:29.195Z,101741.39
2019-05-14T08:41:32.634Z,101744.56
2019-05-14T08:44:38.752Z,101737.55
2019-05-14T08:47:41.541Z,101745.88
2019-05-14T08:50:44.977Z,101738.87
2019-05-14T08:53:50.582Z,101737.06
2019-05-14T08:56:54.294Z,101737.00
2019-05-14T08:59:59.391Z,101739.65
2019-05-14T09:03:08.497Z,101735.28
2019-05-14T09:06:13.188Z,101736.61
2019-05-14T09:09:18.223Z,101740.58
2019-05-14T09:12:22.057Z,101727.34
2019-05-14T09:15:25.539Z,101731.18
2019-05-14T09:18:29.261Z,101726.40
2019-05-14T09:21:32.969Z,101725.08
2019-05-14T09:24:38.483Z,101716.61
2019-05-14T09:27:41.683Z,101716.61
2019-05-14T09:30:48.565Z,101721.77
2019-05-14T09:33:52.584Z,101715.54
2019-05-14T09:36:59.172Z,101712.89
2019-05-14T09:40:01.529Z,101702.22
2019-05-14T09:43:05.040Z,101695.14
2019-05-14T09:46:09.553Z,101693.40
2019-05-14T09:49:13.068Z,101688.27
2019-05-14T09:52:18.641Z,101689.42
2019-05-14T09:55:21.700Z,101692.95
2019-05-14T09:58:25.213Z,101688.09
2019-05-14T10:01:28.836Z,101694.66
2019-05-14T10:04:32.805Z,101679.24
2019-05-14T10:07:38.823Z,101688.77
2019-05-14T10:10:41.742Z,101678.17
2019-05-14T10:13:48.172Z,101668.89
2019-05-14T10:16:51.324Z,101681.70
2019-05-14T10:19:54.851Z,101663.98
2019-05-14T10:23:00.380Z,101655.09
2019-05-14T10:26:03.919Z,101648.88
2019-05-14T10:29:08.736Z,101640.93
2019-05-14T10:32:12.310Z,101641.84
2019-05-14T10:35:15.843Z,101639.61
2019-05-14T10:38:20.351Z,101639.99
2019-05-14T10:41:23.765Z,101642.64
2019-05-14T10:44:29.271Z,101664.78
2019-05-14T10:47:32.697Z,101657.73
2019-05-14T10:50:55.184Z,101652.79
2019-05-14T10:53:42.573Z,101643.90
2019-05-14T10:56:46.051Z,101641.56
2019-05-14T10:59:49.557Z,101635.25
2019-05-14T11:02:53.053Z,101622.88
2019-05-14T11:05:58.707Z,101621.93
2019-05-14T11:09:01.916Z,101612.52
2019-05-14T11:12:05.425Z,101610.35
2019-05-14T11:15:09.046Z,101610.28
2019-05-14T11:18:12.602Z,101623.92
2019-05-14T11:21:22.968Z,101635.85
2019-05-14T11:24:21.604Z,101639.83
2019-05-14T11:27:25.160Z,101641.16
2019-05-14T11:30:29.688Z,101632.26
2019-05-14T11:33:33.203Z,101629.99
2019-05-14T11:36:38.839Z,101618.06
2019-05-14T11:39:41.910Z,101618.80
2019-05-14T11:42:45.331Z,101613.42
2019-05-14T11:45:48.774Z,101592.14
2019-05-14T11:48:52.184Z,101594.31
2019-05-14T11:52:04.270Z,101587.16
2019-05-14T11:55:01.072Z,101573.52
2019-05-14T11:58:04.708Z,101581.85
2019-05-14T12:01:09.268Z,101578.67
2019-05-14T12:04:12.918Z,101578.11
2019-05-14T12:07:18.490Z,101580.77
2019-05-14T12:10:22.612Z,101582.09
2019-05-14T12:13:30.070Z,101608.22
2019-05-14T12:16:32.449Z,101633.03
2019-05-14T12:19:35.955Z,101629.19
2019-05-14T12:22:40.523Z,101615.94
2019-05-14T12:25:44.334Z,101610.63
2019-05-14T12:28:49.448Z,101604.25
2019-05-14T12:31:53.020Z,101595.98
2019-05-14T12:34:59.210Z,101593.64
2019-05-14T12:38:03.717Z,101589.13
2019-05-14T12:41:09.129Z,101588.65
2019-05-14T12:44:13.261Z,101584.67
2019-05-14T12:47:18.877Z,101585.92
2019-05-14T12:50:22.154Z,101585.47
2019-05-14T12:53:28.534Z,101583.66
2019-05-14T12:56:32.136Z,101579.67
2019-05-14T12:59:38.016Z,101583.66
2019-05-14T13:02:40.989Z,101575.63
2019-05-14T13:05:44.577Z,101567.67
2019-05-14T13:08:49.179Z,101560.20
2019-05-14T13:11:52.921Z,101550.85
2019-05-14T13:14:57.903Z,101545.63
2019-05-14T13:18:02.559Z,101542.97
2019-05-14T13:21:06.110Z,101542.17
2019-05-14T13:24:09.559Z,101545.77
2019-05-14T13:27:13.109Z,101557.31
2019-05-14T13:30:18.527Z,101551.07
2019-05-14T13:33:21.898Z,101551.00
2019-05-14T13:36:28.827Z,101540.08
2019-05-14T13:39:31.561Z,101534.36
2019-05-14T13:42:35.099Z,101531.71
2019-05-14T13:45:45.098Z,101532.66
2019-05-14T13:48:49.907Z,101527.28
2019-05-14T13:51:53.761Z,101522.28
2019-05-14T13:54:57.245Z,101517.44
2019-05-14T13:58:00.906Z,101504.11
2019-05-14T14:01:04.455Z,101500.62
2019-05-14T14:04:12.521Z,101500.55
2019-05-14T14:07:13.322Z,101494.52
2019-05-14T14:10:17.279Z,101489.52
2019-05-14T14:13:20.699Z,101495.24
2019-05-14T14:16:24.225Z,101482.89
2019-05-14T14:19:28.266Z,101483.38
2019-05-14T14:22:32.862Z,101485.55
2019-05-14T14:25:39.284Z,101479.33
2019-05-14T14:28:41.710Z,101474.86
2019-05-14T14:31:45.195Z,101481.11
2019-05-14T14:34:48.706Z,101478.91
2019-05-14T14:37:52.210Z,101469.63
2019-05-14T14:40:58.212Z,101457.70
2019-05-14T14:44:02.989Z,101452.48
2019-05-14T14:47:08.020Z,101449.75
2019-05-14T14:50:11.811Z,101455.05
2019-05-14T14:53:15.253Z,101451.87
2019-05-14T14:56:19.087Z,101441.80
2019-05-14T14:59:22.761Z,101441.64
2019-05-14T15:02:28.763Z,101442.06
2019-05-14T15:05:31.702Z,101446.41
2019-05-14T15:08:35.217Z,101441.11
2019-05-14T15:11:39.645Z,101435.24
2019-05-14T15:14:43.296Z,101436.19
2019-05-14T15:17:48.337Z,101433.53
2019-05-14T15:20:52.099Z,101426.37
2019-05-14T15:24:07.128Z,101425.05
2019-05-14T15:27:07.352Z,101411.79
2019-05-14T15:30:06.471Z,101409.90
2019-05-14T15:33:09.973Z,101408.19
2019-05-14T15:36:14.510Z,101403.27
2019-05-14T15:39:22.408Z,101393.83
2019-05-14T15:42:25.402Z,101399.21
2019-05-14T15:45:29.927Z,101392.13
2019-05-14T15:48:33.335Z,101392.50
2019-05-14T15:51:36.921Z,101387.36
2019-05-14T15:54:46.696Z,101391.74
2019-05-14T15:57:45.565Z,101392.99
2019-05-14T16:00:49.063Z,101388.53
2019-05-14T16:03:52.546Z,101380.57
2019-05-14T16:06:58.640Z,101379.63
2019-05-14T16:10:04.377Z,101368.09
2019-05-14T16:13:08.915Z,101360.52
2019-05-14T16:16:12.516Z,101352.50
2019-05-14T16:19:16.014Z,101357.44
2019-05-14T16:22:19.675Z,101354.21
2019-05-14T16:25:23.122Z,101357.36
2019-05-14T16:28:28.760Z,101353.67
2019-05-14T16:31:32.879Z,101351.56
2019-05-14T16:34:40.575Z,101354.05
2019-05-14T16:37:41.515Z,101347.80
2019-05-14T16:40:48.761Z,101340.62
2019-05-14T16:43:51.214Z,101338.52
2019-05-14T16:46:54.698Z,101337.98
2019-05-14T16:49:59.135Z,101332.67
2019-05-14T16:53:03.855Z,101331.72
2019-05-14T16:56:08.128Z,101328.16
2019-05-14T16:59:11.972Z,101325.09
2019-05-14T17:02:15.454Z,101322.84
2019-05-14T17:05:18.979Z,101320.19
2019-05-14T17:08:22.576Z,101322.57
2019-05-14T17:11:28.211Z,101312.05
2019-05-14T17:14:31.243Z,101313.78
2019-05-14T17:17:34.702Z,101313.86
2019-05-14T17:20:39.457Z,101315.64
2019-05-14T17:23:44.060Z,101312.45
2019-05-14T17:26:48.910Z,101311.50
2019-05-14T17:29:52.461Z,101316.43
2019-05-14T17:32:55.911Z,101313.20
2019-05-14T17:35:59.528Z,101312.83
2019-05-14T17:39:03.114Z,101316.27
2019-05-14T17:42:11.392Z,101309.23
2019-05-14T17:45:12.072Z,101318.14
2019-05-14T17:48:15.555Z,101316.35
2019-05-14T17:51:20.075Z,101319.47
2019-05-14T17:54:23.585Z,101326.88
2019-05-14T17:57:34.265Z,101321.00
2019-05-14T18:00:32.431Z,101328.97
2019-05-14T18:03:36.041Z,101320.63
2019-05-14T18:06:39.646Z,101318.92
2019-05-14T18:09:43.124Z,101317.11
2019-05-14T18:12:48.196Z,101318.05
2019-05-14T18:15:51.977Z,101319.30
2019-05-14T18:18:55.481Z,101317.98
2019-05-14T18:22:00.042Z,101324.98
2019-05-14T18:25:03.557Z,101326.80
2019-05-14T18:28:09.350Z,101327.64
2019-05-14T18:31:12.356Z,101329.34
2019-05-14T18:34:15.926Z,101317.41
2019-05-14T18:37:19.331Z,101323.66
2019-05-14T18:40:22.769Z,101324.98
2019-05-14T18:43:26.189Z,101327.64
2019-05-14T18:46:29.655Z,101335.14
2019-05-14T18:49:33.059Z,101330.67
2019-05-14T18:52:39.493Z,101338.63
2019-05-14T18:55:42.019Z,101335.22
2019-05-14T18:58:45.441Z,101336.62
2019-05-14T19:01:53.388Z,101343.72
2019-05-14T19:04:54.237Z,101339.90
2019-05-14T19:07:59.325Z,101343.88
2019-05-14T19:11:03.082Z,101339.60
2019-05-14T19:14:08.897Z,101343.50
2019-05-14T19:17:11.920Z,101341.80
2019-05-14T19:20:15.443Z,101343.58
2019-05-14T19:23:19.026Z,101340.09
2019-05-14T19:26:33.334Z,101336.11
2019-05-14T19:29:28.182Z,101341.42
2019-05-14T19:32:31.784Z,101330.40
2019-05-14T19:35:35.191Z,101336.57
2019-05-14T19:38:39.147Z,101331.34
2019-05-14T19:41:42.655Z,101334.53
2019-05-14T19:44:48.128Z,101336.44
2019-05-14T19:47:51.352Z,101331.28
2019-05-14T19:50:54.763Z,101340.47
2019-05-14T19:53:58.584Z,101333.62
2019-05-14T19:57:02.255Z,101336.27
2019-05-14T20:00:08.948Z,101337.38
2019-05-14T20:03:11.941Z,101339.09
2019-05-14T20:06:15.442Z,101342.77
2019-05-14T20:09:18.964Z,101345.08
2019-05-14T20:12:22.439Z,101341.97
2019-05-14T20:15:25.920Z,101347.51
2019-05-14T20:18:29.399Z,101347.51
2019-05-14T20:21:32.832Z,101348.83
2019-05-14T20:24:41.181Z,101342.44
2019-05-14T20:27:42.819Z,101346.98
2019-05-14T20:30:48.975Z,101348.92
2019-05-14T20:33:51.527Z,101343.23
2019-05-14T20:36:55.169Z,101345.58
2019-05-14T20:40:00.688Z,101343.46
2019-05-14T20:43:04.218Z,101340.89
2019-05-14T20:46:09.723Z,101339.72
2019-05-14T20:49:13.137Z,101339.19
2019-05-14T20:52:19.215Z,101337.06
2019-05-14T20:55:22.085Z,101338.02
2019-05-14T20:58:27.819Z,101337.06
2019-05-14T21:01:30.727Z,101334.60
2019-05-14T21:04:34.228Z,101330.62
2019-05-14T21:07:38.530Z,101333.81
2019-05-14T21:10:42.163Z,101329.45
2019-05-14T21:13:45.765Z,101326.02
2019-05-14T21:16:49.240Z,101322.60
2019-05-14T21:19:52.662Z,101329.12
2019-05-14T21:22:58.486Z,101331.01
2019-05-14T21:26:03.460Z,101322.75
2019-05-14T21:29:07.935Z,101325.41
2019-05-14T21:32:11.464Z,101322.34
2019-05-14T21:35:14.965Z,101319.84
2019-05-14T21:38:19.213Z,101326.47
2019-05-14T21:41:22.685Z,101328.36
2019-05-14T21:44:28.357Z,101329.98
2019-05-14T21:47:32.042Z,101325.70
2019-05-14T21:50:35.571Z,101334.60
2019-05-14T21:53:41.226Z,101322.27
2019-05-14T21:56:44.392Z,101318.70
2019-05-14T21:59:48.090Z,101309.58
2019-05-14T22:02:51.507Z,101308.25
2019-05-14T22:05:55.095Z,101305.60
2019-05-14T22:08:59.247Z,101303.03
2019-05-14T22:12:02.814Z,101302.72
2019-05-14T22:15:08.490Z,101297.80
2019-05-14T22:18:17.577Z,101297.42
2019-05-14T22:21:18.383Z,101298.41
2019-05-14T22:24:22.051Z,101288.61
2019-05-14T22:27:25.459Z,101287.36
2019-05-14T22:30:29.207Z,101283.92
2019-05-14T22:33:32.635Z,101283.92
2019-05-14T22:36:38.448Z,101283.16
2019-05-14T22:39:42.428Z,101283.53
2019-05-14T22:42:45.915Z,101289.78
2019-05-14T22:45:49.412Z,101284.94
2019-05-14T22:48:53.947Z,101281.08
2019-05-14T22:51:58.865Z,101280.63
2019-05-14T22:55:03.615Z,101287.51
2019-05-14T22:58:09.935Z,101290.28
2019-05-14T23:01:15.286Z,101285.92
2019-05-14T23:04:18.980Z,101287.70
2019-05-14T23:07:22.534Z,101282.89
2019-05-14T23:10:26.022Z,101281.95
2019-05-14T23:13:29.513Z,101284.67
2019-05-14T23:16:37.825Z,101283.42
2019-05-14T23:19:38.195Z,101287.02
2019-05-14T23:22:41.655Z,101281.72
2019-05-14T23:25:46.187Z,101272.52
2019-05-14T23:28:49.683Z,101269.42
2019-05-14T23:31:53.191Z,101265.03
2019-05-14T23:34:58.432Z,101259.28
2019-05-14T23:38:01.833Z,101256.33
2019-05-14T23:41:08.701Z,101257.58
2019-05-14T23:44:15.136Z,101261.63
2019-05-14T23:47:19.386Z,101259.89
2019-05-14T23:50:24.028Z,101259.51
2019-05-14T23:53:29.096Z,101262.53
2019-05-14T23:56:33.706Z,101264.27
2019-05-14T23:59:39.464Z,101257.23
